Time;durP1;ratioP1;P1;durP2;ratioP2;P2;SDS_P1;SDS_P2;PMS_P1;PMS_P2;Temp;Humidity;BMP_temperature;BMP_pressure;BME280_temperature;BME280_humidity;BME280_pressure;Samples;Min_cycle;Max_cycle;Signal;HPM_P1;HPM_P2
2022/11/29 00:00:59;;;;;;;7.35;3.15;;;;;;;9.40;nan;99312.34;6033675;23;20631;-86
2022/11/29 00:03:25;;;;;;;6.00;4.80;;;;;;;9.42;nan;99307.84;6031528;23;20244;-85
2022/11/29 00:05:52;;;;;;;4.70;3.38;;;;;;;9.44;nan;99307.75;6032294;23;20797;-85
2022/11/29 00:08:19;;;;;;;5.43;3.53;;;;;;;9.43;nan;99303.47;6032287;23;20593;-84
2022/11/29 00:10:44;;;;;;;5.13;4.63;;;;;;;9.44;nan;99308.59;6007517;23;20209;-86
2022/11/29 00:13:10;;;;;;;3.57;3.27;;;;;;;9.47;nan;99307.56;6032600;23;20373;-85
2022/11/29 00:15:37;;;;;;;5.43;3.60;;;;;;;9.47;nan;99302.31;6034168;23;20186;-86
2022/11/29 00:18:03;;;;;;;10.40;3.55;;;;;;;9.48;nan;99306.63;6031274;23;20174;-86
2022/11/29 00:20:28;;;;;;;3.67;3.47;;;;;;;9.49;nan;99303.91;6032601;23;20778;-85
2022/11/29 00:22:54;;;;;;;5.50;2.87;;;;;;;9.49;nan;99305.69;6037719;23;20177;-85
2022/11/29 00:25:19;;;;;;;4.43;2.93;;;;;;;9.48;nan;99306.63;6033346;23;20591;-84
2022/11/29 00:27:50;;;;;;;4.73;3.07;;;;;;;9.46;nan;99304.09;6035506;23;20193;-87
2022/11/29 00:30:16;;;;;;;5.68;3.22;;;;;;;9.46;nan;99301.47;6037282;23;20553;-85
2022/11/29 00:32:41;;;;;;;4.60;3.73;;;;;;;9.48;nan;99298.78;6039511;23;20706;-85
2022/11/29 00:35:07;;;;;;;4.53;3.43;;;;;;;9.48;nan;99296.97;6032103;23;20183;-85
2022/11/29 00:37:33;;;;;;;4.03;3.40;;;;;;;9.49;nan;99301.28;6032074;23;20705;-84
2022/11/29 00:39:58;;;;;;;3.90;2.97;;;;;;;9.48;nan;99301.38;6032405;23;20407;-85
2022/11/29 00:42:24;;;;;;;7.07;3.57;;;;;;;9.47;nan;99300.53;6036524;23;20413;-85
2022/11/29 00:44:49;;;;;;;5.27;3.93;;;;;;;9.46;nan;99304.09;6039220;23;20197;-84
2022/11/29 00:47:14;;;;;;;4.10;2.40;;;;;;;9.43;nan;99304.28;6036445;23;20244;-84
2022/11/29 00:49:40;;;;;;;6.10;3.30;;;;;;;9.41;nan;99302.72;6035802;23;20188;-84
2022/11/29 00:52:06;;;;;;;5.60;3.67;;;;;;;9.40;nan;99304.50;6031303;23;20300;-84
2022/11/29 00:54:32;;;;;;;5.03;3.23;;;;;;;9.38;nan;99298.50;6032397;23;20443;-84
2022/11/29 00:56:57;;;;;;;6.73;2.87;;;;;;;9.35;nan;99301.31;6031538;23;20201;-84
2022/11/29 00:59:22;;;;;;;5.33;3.40;;;;;;;9.31;nan;99305.06;6032682;23;20176;-84
2022/11/29 01:01:48;;;;;;;4.10;3.53;;;;;;;9.27;nan;99306.22;6036743;23;20197;-83
2022/11/29 01:04:13;;;;;;;5.70;3.27;;;;;;;9.24;nan;99299.38;6034282;23;20177;-84
2022/11/29 01:06:39;;;;;;;6.50;3.10;;;;;;;9.25;nan;99302.84;6009976;23;20202;-84
2022/11/29 01:09:05;;;;;;;6.13;3.00;;;;;;;9.27;nan;99301.81;6036928;23;20168;-83
2022/11/29 01:11:30;;;;;;;3.83;3.17;;;;;;;9.30;nan;99306.84;6037564;23;20233;-84
2022/11/29 01:13:59;;;;;;;6.00;3.43;;;;;;;9.33;nan;99311.06;6030951;23;20587;-85
2022/11/29 01:16:26;;;;;;;4.90;3.25;;;;;;;9.33;nan;99303.19;6032432;23;20198;-84
2022/11/29 01:18:51;;;;;;;7.88;3.38;;;;;;;9.31;nan;99312.94;6031350;23;20801;-84
2022/11/29 01:21:20;;;;;;;4.40;3.50;;;;;;;9.31;nan;99312.94;6031956;23;20197;-84
2022/11/29 01:23:46;;;;;;;6.28;3.20;;;;;;;9.29;nan;99310.41;6030674;23;20192;-84
2022/11/29 01:26:15;;;;;;;10.10;3.60;;;;;;;9.28;nan;99319.19;6031458;23;20205;-84
2022/11/29 01:28:41;;;;;;;7.60;3.72;;;;;;;9.29;nan;99315.66;6008368;23;20512;-84
2022/11/29 01:31:12;;;;;;;12.20;3.45;;;;;;;9.30;nan;99311.25;6032911;23;20205;-84
2022/11/29 01:33:38;;;;;;;5.25;3.60;;;;;;;9.27;nan;99312.28;6032744;23;20176;-84
2022/11/29 01:36:04;;;;;;;5.47;3.03;;;;;;;9.26;nan;99315.84;6033395;23;20203;-84
2022/11/29 01:38:30;;;;;;;4.57;3.67;;;;;;;9.26;nan;99310.63;6032742;23;20703;-84
2022/11/29 01:41:02;;;;;;;5.30;3.20;;;;;;;9.27;nan;99311.44;6033729;23;20177;-84
2022/11/29 01:43:29;;;;;;;5.50;3.92;;;;;;;9.27;nan;99314.06;6031790;23;21231;-84
2022/11/29 01:45:54;;;;;;;8.13;3.47;;;;;;;9.28;nan;99315.75;6032127;23;20735;-84
2022/11/29 01:48:26;;;;;;;7.67;4.40;;;;;;;9.27;nan;99312.28;6033100;23;20204;-84
2022/11/29 01:50:53;;;;;;;8.00;3.90;;;;;;;9.28;nan;99313.97;6035777;23;20261;-84
2022/11/29 01:53:19;;;;;;;4.55;3.15;;;;;;;9.27;nan;99312.28;6035585;23;20190;-84
2022/11/29 01:55:49;;;;;;;4.83;3.30;;;;;;;9.27;nan;99307.03;6037491;23;20518;-84
2022/11/29 01:58:16;;;;;;;8.52;3.97;;;;;;;9.28;nan;99306.09;6033621;23;20507;-84
2022/11/29 02:00:41;;;;;;;6.22;3.20;;;;;;;9.29;nan;99301.72;6006216;23;20179;-84
2022/11/29 02:03:12;;;;;;;6.40;3.60;;;;;;;9.29;nan;99304.34;5985441;23;20624;-84
2022/11/29 02:05:55;;;;;;;7.68;3.95;;;;;;;9.26;nan;99301.88;6034273;23;20187;-84
2022/11/29 02:08:28;;;;;;;3.55;3.00;;;;;;;9.22;nan;99301.25;6034200;23;20205;-84
2022/11/29 02:11:18;;;;;;;6.78;4.25;;;;;;;9.20;nan;99299.66;6031926;23;20221;-84
2022/11/29 02:14:06;;;;;;;4.30;3.85;;;;;;;9.16;nan;99303.44;5974389;23;20232;-84
2022/11/29 02:16:45;;;;;;;5.68;3.50;;;;;;;9.12;nan;99292.28;6042604;23;20209;-84
2022/11/29 02:19:29;;;;;;;5.45;4.55;;;;;;;9.09;nan;99293.31;6037550;23;20183;-84
2022/11/29 02:22:01;;;;;;;5.43;3.25;;;;;;;9.06;nan;99290.88;6039789;23;20249;-84
2022/11/29 02:24:46;;;;;;;7.38;3.75;;;;;;;9.04;nan;99292.75;6040409;23;20574;-84
2022/11/29 02:27:43;;;;;;;8.50;3.50;;;;;;;9.03;nan;99288.47;6040156;23;20598;-84
2022/11/29 02:30:17;;;;;;;3.60;2.95;;;;;;;9.04;nan;99290.13;6033880;23;20185;-84
2022/11/29 02:33:24;;;;;;;11.55;3.90;;;;;;;9.06;nan;99282.19;6041948;23;20185;-84
2022/11/29 02:36:01;;;;;;;9.73;4.10;;;;;;;9.03;nan;99279.75;5993608;23;20455;-84
2022/11/29 02:39:01;;;;;;;6.88;4.93;;;;;;;8.98;nan;99287.91;6038054;23;20184;-84
2022/11/29 02:41:37;;;;;;;;;;;;;;;;;;;;;
2022/11/29 02:44:15;;;;;;;10.15;3.35;;;;;;;8.90;nan;99294.56;6030499;23;20346;-84
2022/11/29 02:46:54;;;;;;;5.53;3.65;;;;;;;8.84;nan;99298.41;6007297;23;20223;-83
2022/11/29 02:49:51;;;;;;;5.18;3.40;;;;;;;8.81;nan;99295.97;6030968;23;20185;-84
2022/11/29 02:52:32;;;;;;;4.03;2.47;;;;;;;8.80;nan;99294.25;6004978;23;20205;-84
2022/11/29 02:55:05;;;;;;;4.45;3.38;;;;;;;8.82;nan;99295.03;6031369;23;20184;-84
2022/11/29 02:57:36;;;;;;;5.20;3.55;;;;;;;8.84;nan;99304.47;6032358;23;20204;-84
2022/11/29 03:00:17;;;;;;;4.95;2.90;;;;;;;8.84;nan;99303.63;6041897;23;20181;-84
2022/11/29 03:03:02;;;;;;;5.97;3.42;;;;;;;8.85;nan;99300.06;6039601;23;20178;-84
2022/11/29 03:05:38;;;;;;;4.53;3.45;;;;;;;8.84;nan;99303.63;6035909;23;20703;-84
2022/11/29 03:08:24;;;;;;;6.45;3.35;;;;;;;8.86;nan;99302.59;6034447;23;20599;-84
2022/11/29 03:11:23;;;;;;;6.00;3.00;;;;;;;8.88;nan;99309.50;6033321;23;20252;-85
2022/11/29 03:13:58;;;;;;;3.80;2.83;;;;;;;8.88;nan;99305.13;5994237;23;20186;-84
2022/11/29 03:16:49;;;;;;;4.35;3.30;;;;;;;8.89;nan;99304.19;6032366;23;20211;-85
2022/11/29 03:19:37;;;;;;;9.35;4.40;;;;;;;8.88;nan;99305.13;6017527;23;20188;-85
2022/11/29 03:22:25;;;;;;;5.07;2.88;;;;;;;8.86;nan;99312.25;6009292;23;20676;-85
2022/11/29 03:24:55;;;;;;;5.07;3.28;;;;;;;8.82;nan;99310.72;6031922;23;20781;-85
2022/11/29 03:27:30;;;;;;;3.30;2.95;;;;;;;8.76;nan;99309.34;6032827;23;20236;-85
2022/11/29 03:29:58;;;;;;;5.00;3.47;;;;;;;8.74;nan;99307.75;6033264;23;20192;-84
2022/11/29 03:32:40;;;;;;;4.80;3.55;;;;;;;8.72;nan;99313.09;6008610;23;20261;-84
2022/11/29 03:35:12;;;;;;;6.10;3.47;;;;;;;8.72;nan;99320.94;6018614;23;20225;-85
2022/11/29 03:37:52;;;;;;;5.25;3.00;;;;;;;8.71;nan;99328.88;5993955;23;20229;-84
2022/11/29 03:40:46;;;;;;;5.32;3.33;;;;;;;8.69;nan;99328.13;6033523;23;20309;-84
2022/11/29 03:43:22;;;;;;;4.22;2.67;;;;;;;8.69;nan;99330.75;6032116;23;20169;-85
2022/11/29 03:45:53;;;;;;;3.30;3.00;;;;;;;8.68;nan;99331.69;6032116;23;20260;-85
2022/11/29 03:48:47;;;;;;;9.20;3.58;;;;;;;8.66;nan;99328.31;6035267;23;20229;-85
2022/11/29 03:51:21;;;;;;;8.68;3.10;;;;;;;8.61;nan;99329.44;6032511;23;20235;-87
2022/11/29 03:54:06;;;;;;;4.25;3.10;;;;;;;8.59;nan;99341.78;6031969;23;20264;-85
2022/11/29 03:56:38;;;;;;;3.78;3.08;;;;;;;8.60;nan;99334.75;6034659;23;20691;-84
2022/11/29 03:59:29;;;;;;;3.70;3.05;;;;;;;8.58;nan;99341.84;6033159;23;20204;-86
2022/11/29 04:02:06;;;;;;;6.72;4.35;;;;;;;8.54;nan;99341.22;6032926;23;20570;-86
2022/11/29 04:05:11;;;;;;;4.70;3.90;;;;;;;8.54;nan;99333.34;6031766;23;20455;-84
2022/11/29 04:07:59;;;;;;;5.32;3.17;;;;;;;8.49;nan;99339.81;6033575;23;20574;-84
2022/11/29 04:11:02;;;;;;;4.47;3.72;;;;;;;8.48;nan;99332.88;5996291;23;20571;-84
2022/11/29 04:13:55;;;;;;;7.72;3.40;;;;;;;8.48;nan;99335.47;6036327;23;20200;-84
2022/11/29 04:16:42;;;;;;;8.82;2.90;;;;;;;8.49;nan;99335.41;6031866;23;20263;-86
2022/11/29 04:19:36;;;;;;;3.80;3.40;;;;;;;8.50;nan;99336.25;6031220;23;20430;-84
2022/11/29 04:22:14;;;;;;;8.73;3.53;;;;;;;8.49;nan;99335.41;6031386;23;20182;-84
2022/11/29 04:24:51;;;;;;;7.85;3.15;;;;;;;8.50;nan;99339.69;6030794;23;20232;-84
2022/11/29 04:27:57;;;;;;;10.55;3.38;;;;;;;8.49;nan;99343.25;6007505;23;20522;-87
2022/11/29 04:30:35;;;;;;;4.65;3.90;;;;;;;8.47;nan;99344.28;6036291;23;20275;-86
2022/11/29 04:33:40;;;;;;;5.47;3.42;;;;;;;8.45;nan;99348.75;6034209;23;20181;-85
2022/11/29 04:36:32;;;;;;;10.02;4.00;;;;;;;8.39;nan;99349.97;6032716;23;20215;-86
2022/11/29 04:39:22;;;;;;;3.50;3.00;;;;;;;8.34;nan;99349.34;6031768;23;20190;-83
2022/11/29 04:42:06;;;;;;;5.55;3.35;;;;;;;8.31;nan;99352.16;6027855;23;20240;-85
2022/11/29 04:45:02;;;;;;;6.35;2.75;;;;;;;8.29;nan;99360.09;6041695;23;20178;-87
2022/11/29 04:47:47;;;;;;;5.10;3.03;;;;;;;8.27;nan;99361.97;6033134;23;20215;-86
2022/11/29 04:50:36;;;;;;;2.75;2.55;;;;;;;8.22;nan;99361.38;6032954;23;20197;-87
2022/11/29 04:53:05;;;;;;;4.05;2.90;;;;;;;8.16;nan;99354.72;6032291;23;20196;-84
2022/11/29 04:55:48;;;;;;;5.18;3.17;;;;;;;8.14;nan;99361.81;6005284;23;20201;-84
2022/11/29 04:58:53;;;;;;;4.00;3.30;;;;;;;8.13;nan;99360.16;6031079;23;20706;-84
2022/11/29 05:01:34;;;;;;;5.88;3.25;;;;;;;8.11;nan;99369.00;6031920;23;20241;-85
2022/11/29 05:04:18;;;;;;;5.63;3.50;;;;;;;8.07;nan;99368.31;6039579;23;20175;-85
2022/11/29 05:07:02;;;;;;;7.63;3.50;;;;;;;8.05;nan;99378.06;6017593;23;20228;-86
2022/11/29 05:09:49;;;;;;;6.80;3.67;;;;;;;8.04;nan;99381.59;6007273;23;20276;-85
2022/11/29 05:12:42;;;;;;;8.32;4.15;;;;;;;8.01;nan;99379.16;6031121;23;20284;-85
2022/11/29 05:15:39;;;;;;;11.70;3.60;;;;;;;8.01;nan;99380.94;6033261;23;20734;-85
2022/11/29 05:18:19;;;;;;;3.03;2.75;;;;;;;7.99;nan;99378.38;6006964;23;20182;-85
2022/11/29 05:21:05;;;;;;;4.90;2.72;;;;;;;8.00;nan;99385.31;6031424;23;20283;-85
2022/11/29 05:24:02;;;;;;;3.55;3.25;;;;;;;7.97;nan;99383.72;6039853;23;20538;-85
2022/11/29 05:26:50;;;;;;;5.78;2.35;;;;;;;7.89;nan;99383.31;6022944;23;20216;-86
2022/11/29 05:29:33;;;;;;;12.88;3.80;;;;;;;7.83;nan;99388.03;6045938;23;20177;-85
2022/11/29 05:32:34;;;;;;;10.85;6.75;;;;;;;7.79;nan;99395.19;6049947;23;20179;-86
2022/11/29 05:35:41;;;;;;;17.80;11.25;;;;;;;7.81;nan;99387.28;6045605;23;20448;-86
2022/11/29 05:38:25;;;;;;;58.58;29.08;;;;;;;7.78;nan;99384.81;5958641;24;20183;-86
2022/11/29 05:41:01;;;;;;;39.30;27.05;;;;;;;7.73;nan;99393.78;5957358;24;20908;-87
2022/11/29 05:43:27;;;;;;;31.65;24.73;;;;;;;7.70;nan;99393.94;6008877;23;20193;-87
2022/11/29 05:46:11;;;;;;;21.07;15.70;;;;;;;7.67;nan;99391.50;6022047;23;20205;-87
2022/11/29 05:49:06;;;;;;;21.42;15.55;;;;;;;7.65;nan;99395.97;6014561;23;20434;-87
2022/11/29 05:51:37;;;;;;;10.10;8.98;;;;;;;7.63;nan;99391.75;6004227;23;20221;-87
2022/11/29 05:54:26;;;;;;;8.82;7.65;;;;;;;7.62;nan;99395.31;6020200;23;20194;-86
2022/11/29 05:57:11;;;;;;;7.43;6.47;;;;;;;7.58;nan;99399.84;6036175;23;20267;-86
2022/11/29 05:59:38;;;;;;;11.50;6.65;;;;;;;7.52;nan;99410.63;6010275;23;20190;-87
2022/11/29 06:02:37;;;;;;;6.03;4.85;;;;;;;7.48;nan;99403.88;6044528;23;20177;-86
2022/11/29 06:05:13;;;;;;;8.50;7.30;;;;;;;7.49;nan;99416.88;6037817;23;20459;-87
2022/11/29 06:07:54;;;;;;;11.10;6.60;;;;;;;7.50;nan;99417.69;6033223;23;20440;-87
2022/11/29 06:10:31;;;;;;;6.57;5.80;;;;;;;7.50;nan;99423.78;6021649;23;20204;-87
2022/11/29 06:13:39;;;;;;;6.22;5.70;;;;;;;7.50;nan;99417.69;6042829;23;20766;-87
2022/11/29 06:16:31;;;;;;;8.10;6.30;;;;;;;7.49;nan;99419.47;6036612;23;20205;-87
2022/11/29 06:19:18;;;;;;;13.25;7.00;;;;;;;7.49;nan;99416.88;6036744;23;20193;-88
2022/11/29 06:22:04;;;;;;;12.95;7.35;;;;;;;7.48;nan;99423.03;6037814;23;20223;-87
2022/11/29 06:24:40;;;;;;;11.82;8.48;;;;;;;7.48;nan;99419.56;6031420;23;20181;-87
2022/11/29 06:27:36;;;;;;;11.00;8.38;;;;;;;7.47;nan;99418.72;6030734;23;20291;-86
2022/11/29 06:30:09;;;;;;;14.48;9.60;;;;;;;7.46;nan;99421.44;6032748;23;20185;-87
2022/11/29 06:32:36;;;;;;;12.48;11.07;;;;;;;7.44;nan;99428.50;6041560;23;20204;-87
2022/11/29 06:35:08;;;;;;;9.00;7.03;;;;;;;7.37;nan;99429.75;6030340;23;20187;-88
2022/11/29 06:37:42;;;;;;;7.63;4.47;;;;;;;7.26;nan;99433.78;6041731;23;20227;-87
2022/11/29 06:40:14;;;;;;;6.13;4.80;;;;;;;7.18;nan;99433.31;6036301;23;20184;-86
2022/11/29 06:42:40;;;;;;;7.03;6.03;;;;;;;7.15;nan;99436.09;6047520;23;20192;-88
2022/11/29 06:45:06;;;;;;;14.53;6.10;;;;;;;7.13;nan;99435.34;6049075;23;20185;-87
2022/11/29 06:47:43;;;;;;;6.32;5.82;;;;;;;7.13;nan;99444.94;6022228;23;20674;-87
2022/11/29 06:50:27;;;;;;;10.60;7.05;;;;;;;7.11;nan;99437.19;6005260;23;20220;-87
2022/11/29 06:53:13;;;;;;;7.10;6.40;;;;;;;7.10;nan;99440.72;6029106;23;20665;-86
2022/11/29 06:55:55;;;;;;;7.07;5.68;;;;;;;7.08;nan;99447.81;6029745;23;20492;-87
2022/11/29 06:58:27;;;;;;;7.10;6.40;;;;;;;7.08;nan;99453.88;6007044;23;20628;-87
2022/11/29 07:01:13;;;;;;;5.90;5.40;;;;;;;7.06;nan;99452.25;6031154;23;20592;-87
2022/11/29 07:04:06;;;;;;;7.80;5.93;;;;;;;7.01;nan;99446.44;6032687;23;20459;-86
2022/11/29 07:06:33;;;;;;;8.40;5.20;;;;;;;6.99;nan;99451.72;6004579;23;20476;-86
2022/11/29 07:09:03;;;;;;;7.40;5.25;;;;;;;7.00;nan;99447.34;6005394;23;20185;-87
2022/11/29 07:11:29;;;;;;;6.95;4.90;;;;;;;6.97;nan;99450.97;6028894;23;20656;-87
2022/11/29 07:13:54;;;;;;;7.37;4.80;;;;;;;6.93;nan;99459.88;6029141;23;20189;-86
2022/11/29 07:16:24;;;;;;;7.13;5.30;;;;;;;6.91;nan;99461.72;6031816;23;20456;-87
2022/11/29 07:19:00;;;;;;;5.65;5.05;;;;;;;6.92;nan;99462.56;6032686;23;20432;-86
2022/11/29 07:21:37;;;;;;;7.10;6.47;;;;;;;6.95;nan;99470.25;6032201;23;20177;-86
2022/11/29 07:24:21;;;;;;;6.10;5.55;;;;;;;6.98;nan;99483.16;6035140;23;20184;-86
2022/11/29 07:27:11;;;;;;;4.90;4.40;;;;;;;7.00;nan;99476.09;6033690;23;20201;-86
2022/11/29 07:29:52;;;;;;;4.60;4.22;;;;;;;6.99;nan;99480.44;6032560;23;20233;-87
2022/11/29 07:32:48;;;;;;;4.60;4.15;;;;;;;7.01;nan;99480.38;6032091;23;20207;-86
2022/11/29 07:35:16;;;;;;;5.20;4.78;;;;;;;7.05;nan;99476.69;6034120;23;20181;-87
2022/11/29 07:38:01;;;;;;;4.85;4.45;;;;;;;7.09;nan;99476.44;6008503;23;20273;-86
2022/11/29 07:40:39;;;;;;;4.85;3.40;;;;;;;7.13;nan;99473.66;6007327;23;20425;-86
2022/11/29 07:43:13;;;;;;;8.90;4.43;;;;;;;7.17;nan;99477.81;6010086;23;20242;-87
2022/11/29 07:45:39;;;;;;;5.15;3.90;;;;;;;7.20;nan;99470.66;6033576;23;20193;-87
2022/11/29 07:48:05;;;;;;;3.80;3.50;;;;;;;7.25;nan;99484.34;6030210;23;20230;-86
2022/11/29 07:50:31;;;;;;;6.20;4.57;;;;;;;7.31;nan;99483.16;6030954;23;20185;-87
2022/11/29 07:52:58;;;;;;;7.50;4.20;;;;;;;7.36;nan;99481.16;6032619;23;20205;-87
2022/11/29 07:55:25;;;;;;;7.57;4.65;;;;;;;7.41;nan;99481.75;6009241;23;20793;-86
2022/11/29 07:57:51;;;;;;;8.10;6.30;;;;;;;7.46;nan;99484.97;5988284;23;20555;-87
2022/11/29 08:00:18;;;;;;;5.27;4.77;;;;;;;7.53;nan;99493.31;6001771;23;20194;-87
2022/11/29 08:02:45;;;;;;;8.05;5.20;;;;;;;7.57;nan;99492.25;5977414;23;20466;-87
2022/11/29 08:05:11;;;;;;;8.43;6.88;;;;;;;7.63;nan;99485.84;6000497;23;20441;-87
2022/11/29 08:07:38;;;;;;;8.50;6.95;;;;;;;7.63;nan;99494.53;5978612;23;20263;-86
2022/11/29 08:10:08;;;;;;;12.63;6.93;;;;;;;7.65;nan;99487.47;6001476;23;20180;-87
2022/11/29 08:12:34;;;;;;;9.68;7.70;;;;;;;7.68;nan;99491.69;5977148;23;20217;-86
2022/11/29 08:15:00;;;;;;;11.93;8.80;;;;;;;7.71;nan;99489.75;6003482;23;20210;-87
2022/11/29 08:17:25;;;;;;;12.87;9.20;;;;;;;7.75;nan;99487.81;6001976;23;20453;-86
2022/11/29 08:19:51;;;;;;;10.40;9.40;;;;;;;7.80;nan;99487.56;6001639;23;20403;-87
2022/11/29 08:22:16;;;;;;;12.17;9.20;;;;;;;7.84;nan;99484.69;5977332;23;20608;-87
2022/11/29 08:24:42;;;;;;;13.27;9.17;;;;;;;7.92;nan;99486.91;6000696;23;20499;-86
2022/11/29 08:27:07;;;;;;;14.20;8.83;;;;;;;8.00;nan;99494.34;6003031;23;20278;-86
2022/11/29 08:29:33;;;;;;;15.93;8.10;;;;;;;8.03;nan;99502.00;5976304;23;20186;-87
2022/11/29 08:31:58;;;;;;;15.97;10.03;;;;;;;8.08;nan;99506.06;6002916;23;20596;-87
2022/11/29 08:34:24;;;;;;;19.63;12.47;;;;;;;8.14;nan;99502.25;6001332;23;20178;-86
2022/11/29 08:36:50;;;;;;;20.03;13.53;;;;;;;8.20;nan;99500.13;6002062;23;20201;-87
2022/11/29 08:39:16;;;;;;;18.65;12.15;;;;;;;8.27;nan;99512.91;6005021;23;20246;-86
2022/11/29 08:41:41;;;;;;;15.80;10.20;;;;;;;8.34;nan;99506.38;5975789;23;20210;-87
2022/11/29 08:44:07;;;;;;;14.70;9.80;;;;;;;8.39;nan;99504.38;5976465;23;20184;-87
2022/11/29 08:49:21;;;;;;;7.05;6.32;;;;;;;8.37;nan;99511.44;5978154;23;20189;-87
2022/11/29 08:51:47;;;;;;;6.20;4.80;;;;;;;8.33;nan;99502.91;6002994;23;20757;-87
2022/11/29 08:54:12;;;;;;;4.50;4.10;;;;;;;8.30;nan;99510.09;6002138;23;20189;-87
2022/11/29 08:56:37;;;;;;;10.20;5.60;;;;;;;8.28;nan;99518.03;6003590;23;20212;-87
2022/11/29 08:59:04;;;;;;;6.03;4.77;;;;;;;8.27;nan;99518.97;6003225;23;20483;-87
2022/11/29 09:01:29;;;;;;;7.25;6.35;;;;;;;8.28;nan;99523.25;6002315;23;20181;-85
2022/11/29 09:03:58;;;;;;;10.85;7.63;;;;;;;8.31;nan;99522.25;6001036;23;20436;-87
2022/11/29 09:06:24;;;;;;;8.25;6.97;;;;;;;8.35;nan;99522.00;5997940;23;20206;-87
2022/11/29 09:08:50;;;;;;;12.63;5.88;;;;;;;8.40;nan;99522.63;5999457;23;20609;-86
2022/11/29 09:11:18;;;;;;;6.10;5.50;;;;;;;8.47;nan;99522.28;5998251;23;20265;-86
2022/11/29 09:13:46;;;;;;;12.23;7.03;;;;;;;8.49;nan;99521.25;5998648;23;20177;-87
2022/11/29 09:16:17;;;;;;;14.32;8.02;;;;;;;8.52;nan;99526.31;6003334;23;20202;-86
2022/11/29 09:18:56;;;;;;;13.50;9.30;;;;;;;8.57;nan;99521.66;6001152;23;20182;-87
2022/11/29 09:21:25;;;;;;;9.43;6.13;;;;;;;8.60;nan;99531.97;5999515;23;20510;-86
2022/11/29 09:23:57;;;;;;;13.43;8.80;;;;;;;8.64;nan;99532.63;5998620;23;20168;-86
2022/11/29 09:26:29;;;;;;;9.15;6.15;;;;;;;8.69;nan;99525.34;5998013;23;20206;-87
2022/11/29 09:28:56;;;;;;;9.00;4.95;;;;;;;8.74;nan;99531.16;5974249;23;20183;-87
2022/11/29 09:31:22;;;;;;;6.05;5.00;;;;;;;8.76;nan;99531.09;5973316;23;20625;-86
2022/11/29 09:33:48;;;;;;;5.90;5.20;;;;;;;8.78;nan;99532.69;5976366;23;20185;-87
2022/11/29 09:36:13;;;;;;;8.57;3.60;;;;;;;8.83;nan;99528.03;5978527;23;20264;-86
2022/11/29 09:38:40;;;;;;;7.20;4.57;;;;;;;8.84;nan;99531.50;5972539;23;20425;-86
2022/11/29 09:41:36;;;;;;;9.30;4.50;;;;;;;8.82;nan;99534.19;5973102;23;20235;-86
2022/11/29 09:44:10;;;;;;;8.10;5.35;;;;;;;8.84;nan;99539.34;5999698;23;20304;-87
2022/11/29 09:47:02;;;;;;;5.25;3.55;;;;;;;8.87;nan;99539.16;5998388;23;20411;-87
2022/11/29 09:49:33;;;;;;;4.70;3.63;;;;;;;8.89;nan;99541.72;5973333;23;20522;-86
2022/11/29 09:52:38;;;;;;;7.50;4.57;;;;;;;8.94;nan;99551.00;5998623;23;20245;-86
2022/11/29 09:55:06;;;;;;;7.32;4.38;;;;;;;8.98;nan;99547.25;5998500;23;20190;-87
2022/11/29 09:57:32;;;;;;;12.90;6.55;;;;;;;9.04;nan;99551.28;5998160;23;20677;-87
2022/11/29 10:00:04;;;;;;;10.77;6.03;;;;;;;9.06;nan;99552.88;5998754;23;20226;-86
2022/11/29 10:02:38;;;;;;;13.25;8.07;;;;;;;9.10;nan;99545.72;5997767;23;20179;-86
2022/11/29 10:05:45;;;;;;;12.18;7.60;;;;;;;9.17;nan;99547.00;6006624;23;20245;-87
2022/11/29 10:08:19;;;;;;;10.48;7.13;;;;;;;9.23;nan;99548.44;5987779;23;20181;-87
2022/11/29 10:10:47;;;;;;;9.15;5.13;;;;;;;9.26;nan;99553.50;5998353;23;20197;-87
2022/11/29 10:13:22;;;;;;;9.68;6.20;;;;;;;9.27;nan;99548.16;6012027;23;20297;-87
2022/11/29 10:15:52;;;;;;;10.52;6.55;;;;;;;9.31;nan;99546.19;6000227;23;20204;-87
2022/11/29 10:18:23;;;;;;;8.80;5.72;;;;;;;9.36;nan;99554.63;5999029;23;20185;-87
2022/11/29 10:20:52;;;;;;;9.23;5.55;;;;;;;9.40;nan;99553.53;5974487;23;20265;-87
2022/11/29 10:23:26;;;;;;;8.10;6.00;;;;;;;9.45;nan;99550.63;6000618;23;20186;-87
2022/11/29 10:25:56;;;;;;;9.15;5.90;;;;;;;9.49;nan;99546.88;5976062;23;20197;-88
2022/11/29 10:28:30;;;;;;;8.75;5.80;;;;;;;9.56;nan;99547.34;5998876;23;20182;-87
2022/11/29 10:31:07;;;;;;;7.53;4.90;;;;;;;9.58;nan;99540.25;5999715;23;20224;-87
2022/11/29 10:33:38;;;;;;;11.98;6.32;;;;;;;9.63;nan;99543.44;6009117;23;20185;-87
2022/11/29 10:36:29;;;;;;;9.77;6.50;;;;;;;9.67;nan;99545.78;6009658;23;20262;-87
2022/11/29 10:38:58;;;;;;;4.65;4.18;;;;;;;9.71;nan;99549.06;5973606;23;20641;-87
2022/11/29 10:41:24;;;;;;;5.57;3.95;;;;;;;9.72;nan;99548.97;5998223;23;20181;-87
2022/11/29 10:43:51;;;;;;;8.20;4.65;;;;;;;9.75;nan;99551.41;5999527;23;20257;-87
2022/11/29 10:46:27;;;;;;;8.15;4.85;;;;;;;9.73;nan;99548.03;5998436;23;20264;-87
2022/11/29 10:48:53;;;;;;;6.18;5.60;;;;;;;9.74;nan;99546.25;5997087;23;20170;-87
2022/11/29 10:51:19;;;;;;;7.20;4.53;;;;;;;9.75;nan;99553.19;5973596;23;20217;-87
2022/11/29 10:53:45;;;;;;;4.67;4.23;;;;;;;9.76;nan;99549.63;5998452;23;20273;-88
2022/11/29 10:56:25;;;;;;;7.50;4.28;;;;;;;9.79;nan;99549.44;5973560;23;20530;-86
2022/11/29 10:59:02;;;;;;;6.10;4.40;;;;;;;9.81;nan;99544.09;6002588;23;20225;-87
2022/11/29 11:01:30;;;;;;;11.38;4.55;;;;;;;9.82;nan;99537.91;6003056;23;20178;-87
2022/11/29 11:03:57;;;;;;;5.30;4.13;;;;;;;9.85;nan;99538.53;6000209;23;20175;-87
2022/11/29 11:06:42;;;;;;;6.55;5.85;;;;;;;9.87;nan;99541.94;5974337;23;20265;-87
2022/11/29 11:09:19;;;;;;;8.40;4.68;;;;;;;9.86;nan;99537.63;6000180;23;20181;-87
2022/11/29 11:11:51;;;;;;;5.83;4.60;;;;;;;9.86;nan;99537.63;5543253;23;10000215;-88
2022/11/29 11:14:24;;;;;;;6.93;4.95;;;;;;;9.87;nan;99536.69;5975085;23;21163;-87
2022/11/29 11:16:50;;;;;;;11.13;5.47;;;;;;;9.89;nan;99532.19;5997472;23;20226;-87
2022/11/29 11:19:31;;;;;;;6.88;4.35;;;;;;;9.94;nan;99537.16;6000427;23;20185;-87
2022/11/29 11:21:59;;;;;;;6.63;4.55;;;;;;;9.96;nan;99533.50;6001713;23;20461;-87
2022/11/29 11:24:30;;;;;;;6.90;4.32;;;;;;;10.00;nan;99536.78;5998955;23;20177;-87
2022/11/29 11:26:56;;;;;;;8.98;5.68;;;;;;;10.01;nan;99538.44;5999333;23;20233;-87
2022/11/29 11:29:27;;;;;;;9.60;7.60;;;;;;;10.04;nan;99537.41;6008669;23;20196;-87
2022/11/29 11:31:57;;;;;;;4.95;4.13;;;;;;;10.04;nan;99540.88;6006035;23;20428;-87
2022/11/29 11:34:27;;;;;;;4.25;3.65;;;;;;;10.04;nan;99540.03;6000029;23;20668;-87
2022/11/29 11:37:13;;;;;;;4.63;3.90;;;;;;;10.05;nan;99536.50;6000019;23;20284;-87
2022/11/29 11:39:40;;;;;;;7.95;5.18;;;;;;;10.08;nan;99534.50;6003736;23;20705;-87
2022/11/29 11:44:55;;;;;;;6.80;4.18;;;;;;;10.09;nan;99544.06;6001779;23;20181;-86
2022/11/29 11:47:24;;;;;;;6.53;4.50;;;;;;;10.10;nan;99539.63;6000582;23;20297;-87
2022/11/29 11:49:59;;;;;;;14.77;9.32;;;;;;;10.10;nan;99539.63;6000393;23;20257;-87
2022/11/29 11:52:32;;;;;;;14.57;7.60;;;;;;;10.06;nan;99551.28;6000229;23;20205;-87
2022/11/29 11:55:00;;;;;;;12.80;6.90;;;;;;;10.06;nan;99557.38;6001132;23;20260;-87
2022/11/29 11:57:27;;;;;;;10.32;7.72;;;;;;;10.04;nan;99548.75;6000925;23;20208;-87
2022/11/29 11:59:57;;;;;;;12.15;7.15;;;;;;;10.04;nan;99545.28;5999519;23;20254;-88
2022/11/29 12:02:25;;;;;;;8.68;6.55;;;;;;;10.05;nan;99550.44;6001023;23;20599;-87
2022/11/29 12:04:52;;;;;;;8.52;6.35;;;;;;;10.04;nan;99553.16;6000722;23;20174;-87
2022/11/29 12:07:31;;;;;;;7.72;5.57;;;;;;;10.02;nan;99560.28;6001623;23;20665;-87
2022/11/29 12:10:03;;;;;;;9.63;5.55;;;;;;;9.99;nan;99561.34;5999957;23;20243;-87
2022/11/29 12:12:35;;;;;;;8.73;6.68;;;;;;;9.94;nan;99563.41;5998379;23;20683;-87
2022/11/29 12:15:09;;;;;;;11.13;6.93;;;;;;;9.90;nan;99565.34;5999075;23;20708;-87
2022/11/29 12:17:40;;;;;;;10.90;9.18;;;;;;;9.86;nan;99552.53;6000034;23;20724;-86
2022/11/29 12:20:11;;;;;;;11.68;6.85;;;;;;;9.81;nan;99559.84;5998572;23;20262;-87
2022/11/29 12:22:45;;;;;;;6.78;5.70;;;;;;;9.78;nan;99560.88;5995970;23;20193;-86
2022/11/29 12:25:17;;;;;;;5.97;5.38;;;;;;;9.72;nan;99561.22;5996669;23;20491;-87
2022/11/29 12:27:43;;;;;;;7.28;6.47;;;;;;;9.69;nan;99564.03;5997779;23;20505;-86
2022/11/29 12:30:13;;;;;;;7.83;5.17;;;;;;;9.68;nan;99567.59;5997598;23;20287;-86
2022/11/29 12:32:39;;;;;;;6.45;4.60;;;;;;;9.64;nan;99568.72;5998185;23;20273;-87
2022/11/29 12:35:21;;;;;;;6.70;4.67;;;;;;;9.60;nan;99562.81;5997203;23;20279;-86
2022/11/29 12:38:11;;;;;;;7.15;4.40;;;;;;;9.59;nan;99571.63;5984126;23;20206;-88
2022/11/29 12:40:58;;;;;;;6.38;4.68;;;;;;;9.59;nan;99578.66;6012920;23;20193;-87
2022/11/29 12:43:49;;;;;;;5.65;4.47;;;;;;;9.59;nan;99570.78;6011998;23;20186;-87